createdAt,value
2022-10-16T00:01:56.337Z,7.25
2022-10-16T00:04:25.842Z,7.92
2022-10-16T00:06:55.263Z,7.83
2022-10-16T00:09:24.722Z,7.67
2022-10-16T00:14:24.684Z,8.00
2022-10-16T00:16:54.157Z,8.23
2022-10-16T00:19:23.755Z,8.58
2022-10-16T00:21:53.197Z,8.15
2022-10-16T00:24:22.639Z,7.75
2022-10-16T00:26:52.644Z,8.57
2022-10-16T00:29:22.063Z,8.78
2022-10-16T00:31:51.521Z,9.13
2022-10-16T00:34:20.947Z,8.58
2022-10-16T00:36:50.381Z,8.40
2022-10-16T00:39:20.536Z,8.53
2022-10-16T00:41:50.104Z,8.05
2022-10-16T00:44:48.316Z,8.70
2022-10-16T00:47:30.131Z,8.55
2022-10-16T00:50:06.743Z,8.27
2022-10-16T00:52:37.123Z,8.13
2022-10-16T00:55:08.382Z,8.73
2022-10-16T00:57:39.263Z,8.03
2022-10-16T01:00:11.801Z,8.37
2022-10-16T01:02:41.299Z,8.80
2022-10-16T01:05:12.071Z,7.85
2022-10-16T01:08:11.793Z,7.62
2022-10-16T01:10:44.351Z,8.30
2022-10-16T01:13:16.852Z,8.60
2022-10-16T01:16:04.335Z,8.40
2022-10-16T01:18:43.021Z,8.60
2022-10-16T01:21:15.568Z,8.57
2022-10-16T01:24:00.129Z,8.38
2022-10-16T01:27:06.883Z,8.53
2022-10-16T01:29:48.522Z,8.95
2022-10-16T01:32:21.082Z,8.98
2022-10-16T01:34:56.629Z,8.23
2022-10-16T01:37:44.091Z,8.25
2022-10-16T01:40:16.358Z,9.05
2022-10-16T01:42:48.907Z,10.10
2022-10-16T01:45:20.878Z,8.90
2022-10-16T01:47:52.042Z,8.78
2022-10-16T01:50:23.668Z,8.73
2022-10-16T01:52:56.402Z,8.47
2022-10-16T01:55:28.953Z,8.55
2022-10-16T01:58:01.275Z,9.18
2022-10-16T02:00:32.923Z,8.73
2022-10-16T02:03:04.656Z,9.70
2022-10-16T02:05:49.183Z,8.90
2022-10-16T02:08:21.083Z,9.48
2022-10-16T02:10:50.652Z,9.55
2022-10-16T02:13:29.155Z,9.33
2022-10-16T02:15:58.619Z,9.40
2022-10-16T02:18:30.720Z,9.58
2022-10-16T02:21:06.081Z,9.13
2022-10-16T02:25:44.139Z,10.28
2022-10-16T02:28:19.870Z,10.30
2022-10-16T02:30:58.294Z,10.00
2022-10-16T02:33:27.114Z,10.70
2022-10-16T02:35:57.380Z,10.65
2022-10-16T02:38:28.536Z,10.65
2022-10-16T02:40:58.235Z,11.10
2022-10-16T02:43:28.039Z,10.78
2022-10-16T02:45:57.537Z,10.72
2022-10-16T02:48:26.973Z,11.33
2022-10-16T02:50:56.788Z,10.65
2022-10-16T02:53:26.216Z,11.15
2022-10-16T02:55:55.644Z,9.93
2022-10-16T02:58:25.100Z,10.40
2022-10-16T03:00:54.576Z,9.93
2022-10-16T03:03:24.132Z,11.28
2022-10-16T03:05:53.690Z,10.75
2022-10-16T03:08:24.906Z,12.15
2022-10-16T03:10:54.655Z,11.80
2022-10-16T03:13:24.149Z,10.95
2022-10-16T03:15:53.591Z,12.07
2022-10-16T03:18:23.107Z,11.35
2022-10-16T03:20:52.610Z,11.50
2022-10-16T03:23:22.090Z,12.37
2022-10-16T03:25:51.785Z,11.18
2022-10-16T03:28:21.274Z,11.30
2022-10-16T03:30:50.742Z,11.40
2022-10-16T03:33:20.505Z,10.53
2022-10-16T03:35:56.568Z,10.55
2022-10-16T03:38:26.017Z,12.07
2022-10-16T03:40:55.447Z,11.10
2022-10-16T03:43:25.356Z,11.78
2022-10-16T03:45:54.822Z,11.10
2022-10-16T03:48:24.329Z,11.97
2022-10-16T03:50:53.762Z,11.25
2022-10-16T03:53:23.713Z,10.82
2022-10-16T03:55:53.209Z,10.98
2022-10-16T03:58:22.645Z,11.93
2022-10-16T04:00:52.441Z,11.10
2022-10-16T04:03:22.464Z,11.90
2022-10-16T04:05:52.354Z,11.48
2022-10-16T04:08:21.862Z,11.65
2022-10-16T04:10:51.432Z,11.78
2022-10-16T04:15:50.283Z,12.35
2022-10-16T04:18:19.892Z,11.78
2022-10-16T04:20:49.345Z,11.28
2022-10-16T04:23:18.845Z,12.35
2022-10-16T04:25:48.279Z,12.55
2022-10-16T04:28:17.752Z,11.78
2022-10-16T04:30:47.182Z,12.30
2022-10-16T04:33:16.613Z,12.93
2022-10-16T04:35:46.068Z,12.33
2022-10-16T04:38:16.660Z,11.22
2022-10-16T04:40:46.310Z,11.60
2022-10-16T04:43:15.824Z,10.90
2022-10-16T04:45:45.251Z,11.15
2022-10-16T04:48:14.863Z,10.90
2022-10-16T04:50:44.377Z,11.05
2022-10-16T04:53:13.875Z,11.33
2022-10-16T04:55:44.981Z,11.48
2022-10-16T04:58:14.495Z,11.12
2022-10-16T05:00:44.005Z,10.82
2022-10-16T05:03:14.027Z,11.65
2022-10-16T05:05:47.368Z,11.65
2022-10-16T05:08:18.031Z,11.97
2022-10-16T05:10:47.846Z,11.60
2022-10-16T05:13:17.345Z,11.12
2022-10-16T05:15:51.045Z,12.33
2022-10-16T05:18:20.698Z,11.63
2022-10-16T05:20:50.174Z,12.55
2022-10-16T05:23:19.606Z,11.30
2022-10-16T05:25:58.670Z,11.73
2022-10-16T05:28:31.272Z,12.00
2022-10-16T05:31:00.981Z,12.53
2022-10-16T05:33:30.534Z,11.33
2022-10-16T05:36:05.232Z,11.68
2022-10-16T05:38:35.257Z,12.80
2022-10-16T05:41:06.436Z,11.68
2022-10-16T05:43:35.971Z,11.48
2022-10-16T05:46:07.041Z,11.63
2022-10-16T05:48:36.527Z,11.22
2022-10-16T05:51:08.905Z,12.77
2022-10-16T05:53:41.967Z,12.47
2022-10-16T05:56:14.888Z,12.58
2022-10-16T05:58:45.807Z,12.77
2022-10-16T06:01:18.433Z,11.48
2022-10-16T06:03:48.310Z,11.35
2022-10-16T06:06:21.146Z,11.38
2022-10-16T06:08:51.453Z,12.82
2022-10-16T06:11:23.801Z,10.78
2022-10-16T06:13:54.866Z,13.50
2022-10-16T06:16:24.840Z,12.25
2022-10-16T06:18:55.574Z,13.30
2022-10-16T06:21:26.951Z,13.03
2022-10-16T06:23:57.720Z,12.60
2022-10-16T06:26:29.410Z,12.25
2022-10-16T06:29:01.310Z,12.23
2022-10-16T06:31:33.367Z,12.33
2022-10-16T06:34:03.114Z,13.55
2022-10-16T06:36:32.609Z,13.40
2022-10-16T06:39:02.234Z,12.88
2022-10-16T06:41:31.737Z,12.93
2022-10-16T06:44:03.112Z,12.85
2022-10-16T06:46:32.556Z,13.58
2022-10-16T06:49:01.980Z,13.40
2022-10-16T06:51:33.124Z,13.50
2022-10-16T06:54:04.389Z,13.98
2022-10-16T06:56:35.765Z,11.83
2022-10-16T06:59:05.753Z,12.90
2022-10-16T07:01:35.692Z,12.50
2022-10-16T07:04:05.346Z,12.15
2022-10-16T07:06:36.121Z,11.88
2022-10-16T07:09:11.217Z,12.07
2022-10-16T07:11:41.888Z,11.90
2022-10-16T07:14:17.343Z,11.88
2022-10-16T07:16:47.224Z,12.13
2022-10-16T07:19:18.669Z,10.88
2022-10-16T07:21:48.234Z,10.88
2022-10-16T07:24:18.939Z,12.88
2022-10-16T07:26:48.783Z,11.30
2022-10-16T07:29:21.463Z,11.10
2022-10-16T07:31:51.350Z,10.95
2022-10-16T07:34:22.995Z,11.88
2022-10-16T07:36:53.034Z,11.07
2022-10-16T07:39:22.534Z,10.48
2022-10-16T07:41:51.976Z,10.15
2022-10-16T07:44:21.672Z,10.35
2022-10-16T07:46:51.104Z,9.58
2022-10-16T07:49:20.604Z,8.95
2022-10-16T07:51:50.065Z,9.88
2022-10-16T07:54:19.571Z,10.05
2022-10-16T07:56:49.001Z,8.43
2022-10-16T07:59:18.494Z,9.03
2022-10-16T08:01:48.030Z,8.28
2022-10-16T08:04:17.588Z,7.95
2022-10-16T08:06:47.079Z,8.13
2022-10-16T08:09:16.503Z,8.70
2022-10-16T08:11:45.953Z,8.23
2022-10-16T08:14:15.454Z,7.40
2022-10-16T08:16:44.879Z,8.45
2022-10-16T08:19:15.019Z,8.05
2022-10-16T08:21:44.444Z,8.53
2022-10-16T08:24:13.937Z,8.53
2022-10-16T08:26:43.401Z,8.55
2022-10-16T08:29:12.827Z,8.88
2022-10-16T08:31:42.729Z,8.57
2022-10-16T08:34:12.207Z,8.38
2022-10-16T08:36:41.781Z,7.90
2022-10-16T08:39:11.209Z,8.50
2022-10-16T08:42:13.334Z,8.55
2022-10-16T08:44:45.936Z,8.50
2022-10-16T08:47:27.461Z,8.40
2022-10-16T08:50:05.970Z,8.88
2022-10-16T08:52:37.937Z,9.63
2022-10-16T08:55:07.877Z,8.60
2022-10-16T08:57:37.304Z,8.60
2022-10-16T09:00:12.597Z,8.70
2022-10-16T09:02:45.091Z,8.35
2022-10-16T09:08:04.637Z,9.05
2022-10-16T09:10:54.755Z,8.75
2022-10-16T09:13:29.949Z,8.15
2022-10-16T09:16:02.458Z,8.20
2022-10-16T09:21:19.745Z,8.20
2022-10-16T09:23:49.811Z,7.92
2022-10-16T09:28:54.473Z,8.15
2022-10-16T09:31:25.018Z,8.45
2022-10-16T09:33:57.520Z,8.35
2022-10-16T09:36:29.648Z,7.72
2022-10-16T09:39:10.771Z,7.22
2022-10-16T09:41:43.790Z,7.75
2022-10-16T09:44:28.347Z,7.00
2022-10-16T09:47:06.642Z,7.08
2022-10-16T09:49:36.130Z,6.92
2022-10-16T09:52:07.909Z,6.35
2022-10-16T09:54:37.337Z,6.85
2022-10-16T09:57:09.481Z,6.92
2022-10-16T09:59:41.979Z,6.80
2022-10-16T10:02:14.681Z,7.10
2022-10-16T10:04:58.285Z,6.50
2022-10-16T10:07:30.828Z,6.33
2022-10-16T10:10:00.400Z,6.47
2022-10-16T10:12:33.856Z,6.87
2022-10-16T10:15:09.724Z,6.65
2022-10-16T10:17:42.345Z,6.58
2022-10-16T10:20:30.105Z,5.85
2022-10-16T10:23:00.395Z,5.67
2022-10-16T10:25:55.443Z,6.83
2022-10-16T10:28:44.468Z,5.85
2022-10-16T10:31:25.988Z,5.83
2022-10-16T10:34:16.377Z,5.78
2022-10-16T10:36:49.203Z,5.35
2022-10-16T10:42:22.147Z,5.62
2022-10-16T10:45:09.300Z,5.97
2022-10-16T10:48:02.808Z,5.50
2022-10-16T10:50:51.872Z,5.92
2022-10-16T10:53:45.162Z,5.58
2022-10-16T10:59:06.154Z,7.55
2022-10-16T11:01:47.528Z,5.22
2022-10-16T11:04:22.829Z,5.58
2022-10-16T11:06:58.470Z,5.35
2022-10-16T11:09:30.959Z,5.00
2022-10-16T11:12:03.561Z,4.85
2022-10-16T11:14:44.291Z,5.67
2022-10-16T11:17:22.555Z,5.05
2022-10-16T11:19:55.035Z,5.70
2022-10-16T11:22:42.635Z,5.45
2022-10-16T11:25:24.419Z,5.92
2022-10-16T11:28:14.695Z,5.77
2022-10-16T11:30:47.243Z,5.10
2022-10-16T11:33:25.790Z,5.20
2022-10-16T11:36:01.267Z,5.40
2022-10-16T11:38:36.756Z,5.70
2022-10-16T11:41:26.995Z,5.05
2022-10-16T11:44:02.126Z,5.65
2022-10-16T11:46:33.454Z,6.10
2022-10-16T11:49:23.978Z,5.17
2022-10-16T11:51:59.515Z,4.85
2022-10-16T11:54:35.139Z,5.25
2022-10-16T11:57:07.632Z,5.33
2022-10-16T11:59:40.204Z,4.67
2022-10-16T12:02:21.731Z,4.90
2022-10-16T12:04:58.949Z,5.03
2022-10-16T12:07:31.444Z,5.15
2022-10-16T12:10:03.971Z,5.12
2022-10-16T12:12:42.489Z,5.17
2022-10-16T12:15:47.408Z,5.20
2022-10-16T12:18:01.675Z,4.75
2022-10-16T12:20:36.977Z,4.20
2022-10-16T12:23:11.381Z,4.92
2022-10-16T12:25:44.193Z,4.90
2022-10-16T12:28:25.648Z,4.60
2022-10-16T12:31:03.653Z,4.10
2022-10-16T12:33:38.923Z,4.05
2022-10-16T12:36:16.969Z,4.35
2022-10-16T12:38:52.517Z,4.10
2022-10-16T12:41:38.534Z,3.70
2022-10-16T12:44:09.521Z,3.50
2022-10-16T12:46:42.346Z,4.08
2022-10-16T12:49:19.466Z,3.40
2022-10-16T12:51:48.959Z,3.40
2022-10-16T12:54:20.946Z,3.47
2022-10-16T12:57:11.553Z,3.67
2022-10-16T13:00:02.023Z,3.62
2022-10-16T13:02:43.253Z,3.12
2022-10-16T13:05:47.353Z,4.00
2022-10-16T13:08:51.827Z,3.02
2022-10-16T13:11:39.324Z,2.85
2022-10-16T13:14:36.079Z,4.30
2022-10-16T13:17:18.313Z,3.12
2022-10-16T13:20:09.136Z,3.20
2022-10-16T13:22:41.835Z,3.27
2022-10-16T13:25:41.656Z,2.77
2022-10-16T13:28:13.300Z,3.17
2022-10-16T13:30:44.655Z,2.60
2022-10-16T13:33:18.585Z,3.50
2022-10-16T13:35:54.068Z,2.95
2022-10-16T13:38:26.542Z,3.37
2022-10-16T13:41:01.811Z,3.03
2022-10-16T13:43:43.620Z,3.20
2022-10-16T13:46:18.649Z,2.75
2022-10-16T13:48:58.828Z,2.98
2022-10-16T13:51:28.993Z,2.90
2022-10-16T13:53:59.174Z,2.85
2022-10-16T13:56:31.787Z,2.33
2022-10-16T13:59:07.081Z,3.12
2022-10-16T14:01:46.316Z,3.20
2022-10-16T14:04:16.992Z,2.87
2022-10-16T14:06:49.820Z,3.08
2022-10-16T14:09:31.401Z,2.90
2022-10-16T14:12:03.975Z,2.92
2022-10-16T14:14:36.561Z,3.00
2022-10-16T14:17:05.978Z,3.08
2022-10-16T14:19:35.502Z,3.33
2022-10-16T14:22:06.739Z,3.08
2022-10-16T14:24:37.508Z,2.72
2022-10-16T14:27:25.229Z,3.17
2022-10-16T14:30:12.707Z,3.25
2022-10-16T14:32:44.537Z,3.10
2022-10-16T14:35:35.532Z,2.90
2022-10-16T14:38:07.515Z,3.45
2022-10-16T14:40:39.454Z,3.20
2022-10-16T14:43:10.515Z,3.13
2022-10-16T14:45:42.828Z,3.08
2022-10-16T14:48:19.813Z,2.90
2022-10-16T14:50:49.733Z,2.95
2022-10-16T14:53:19.256Z,2.58
2022-10-16T14:55:49.689Z,2.75
2022-10-16T14:58:22.178Z,3.15
2022-10-16T15:00:52.186Z,2.98
2022-10-16T15:03:21.648Z,3.30
2022-10-16T15:05:51.168Z,2.90
2022-10-16T15:08:20.602Z,3.22
2022-10-16T15:10:50.024Z,3.33
2022-10-16T15:13:19.464Z,3.65
2022-10-16T15:15:52.916Z,3.55
2022-10-16T15:18:23.450Z,3.05
2022-10-16T15:20:53.654Z,3.77
2022-10-16T15:23:24.179Z,4.12
2022-10-16T15:25:56.326Z,3.30
2022-10-16T15:28:27.488Z,2.90
2022-10-16T15:30:59.256Z,2.90
2022-10-16T15:33:33.310Z,2.70
2022-10-16T15:36:03.593Z,3.00
2022-10-16T15:38:33.121Z,3.00
2022-10-16T15:41:02.543Z,3.20
2022-10-16T15:43:32.205Z,3.20
2022-10-16T15:46:07.503Z,2.90
2022-10-16T15:48:37.064Z,3.80
2022-10-16T15:51:09.064Z,3.62
2022-10-16T15:53:38.625Z,3.10
2022-10-16T15:56:09.956Z,3.37
2022-10-16T15:58:40.486Z,3.50
2022-10-16T16:01:11.395Z,3.33
2022-10-16T16:03:41.959Z,3.85
2022-10-16T16:06:14.500Z,3.00
2022-10-16T16:08:44.061Z,3.08
2022-10-16T16:11:15.631Z,3.50
2022-10-16T16:13:45.698Z,3.20
2022-10-16T16:16:17.818Z,3.15
2022-10-16T16:18:47.340Z,3.72
2022-10-16T16:21:17.017Z,3.20
2022-10-16T16:23:48.394Z,3.55
2022-10-16T16:26:31.532Z,3.46
2022-10-16T16:29:01.330Z,3.22
2022-10-16T16:31:32.298Z,3.87
2022-10-16T16:34:01.882Z,3.65
2022-10-16T16:36:31.742Z,3.70
2022-10-16T16:39:01.548Z,3.55
2022-10-16T16:41:32.494Z,3.33
2022-10-16T16:44:08.671Z,3.40
2022-10-16T16:46:38.237Z,4.60
2022-10-16T16:49:09.076Z,4.12
2022-10-16T16:51:40.508Z,3.85
2022-10-16T16:54:13.733Z,3.65
2022-10-16T16:59:16.354Z,4.15
2022-10-16T17:01:46.164Z,3.40
2022-10-16T17:04:19.954Z,3.80
2022-10-16T17:06:51.360Z,4.17
2022-10-16T17:09:20.451Z,3.98
2022-10-16T17:11:49.879Z,3.55
2022-10-16T17:14:19.572Z,3.90
2022-10-16T17:16:50.009Z,4.05
2022-10-16T17:19:21.114Z,4.20
2022-10-16T17:21:52.325Z,4.10
2022-10-16T17:24:22.636Z,3.95
2022-10-16T17:26:52.347Z,4.03
2022-10-16T17:29:22.084Z,3.55
2022-10-16T17:31:51.525Z,3.75
2022-10-16T17:34:21.014Z,4.03
2022-10-16T17:36:50.484Z,4.45
2022-10-16T17:39:20.549Z,3.83
2022-10-16T17:41:50.450Z,4.42
2022-10-16T17:44:22.584Z,3.95
2022-10-16T17:49:22.738Z,4.10
2022-10-16T17:51:55.046Z,3.58
2022-10-16T17:54:24.469Z,4.45
2022-10-16T17:56:53.904Z,3.92
2022-10-16T17:59:23.439Z,4.20
2022-10-16T18:01:53.056Z,4.65
2022-10-16T18:04:22.514Z,4.47
2022-10-16T18:06:52.105Z,3.60
2022-10-16T18:09:21.772Z,3.65
2022-10-16T18:11:52.884Z,3.73
2022-10-16T18:14:22.388Z,4.22
2022-10-16T18:16:53.176Z,4.42
2022-10-16T18:19:23.494Z,4.12
2022-10-16T18:21:55.722Z,3.95
2022-10-16T18:24:25.578Z,4.22
2022-10-16T18:26:59.055Z,3.90
2022-10-16T18:29:28.652Z,3.90
2022-10-16T18:31:58.151Z,3.67
2022-10-16T18:34:28.303Z,3.80
2022-10-16T18:36:58.311Z,4.17
2022-10-16T18:39:28.288Z,4.08
2022-10-16T18:41:59.364Z,4.20
2022-10-16T18:44:30.995Z,4.28
2022-10-16T18:47:02.213Z,3.40
2022-10-16T18:49:31.973Z,4.37
2022-10-16T18:52:03.516Z,4.35
2022-10-16T18:54:33.030Z,4.13
2022-10-16T18:57:02.892Z,4.05
2022-10-16T18:59:32.459Z,4.17
2022-10-16T19:02:02.198Z,4.42
2022-10-16T19:04:31.669Z,4.08
2022-10-16T19:07:01.098Z,4.00
2022-10-16T19:09:31.940Z,4.15
2022-10-16T19:12:03.080Z,4.17
2022-10-16T19:14:35.898Z,3.92
2022-10-16T19:17:05.848Z,4.28
2022-10-16T19:19:40.912Z,4.60
2022-10-16T19:22:14.736Z,3.83
2022-10-16T19:24:46.011Z,4.70
2022-10-16T19:27:15.520Z,4.17
2022-10-16T19:29:44.944Z,3.77
2022-10-16T19:32:14.454Z,4.05
2022-10-16T19:34:45.564Z,4.37
2022-10-16T19:37:14.992Z,3.75
2022-10-16T19:39:44.420Z,3.83
2022-10-16T19:42:13.932Z,4.28
2022-10-16T19:44:43.466Z,4.00
2022-10-16T19:47:12.909Z,3.55
2022-10-16T19:49:42.623Z,4.08
2022-10-16T19:52:12.063Z,4.40
2022-10-16T19:54:41.552Z,4.17
2022-10-16T19:57:11.505Z,4.28
2022-10-16T19:59:43.446Z,4.55
2022-10-16T20:02:12.286Z,4.00
2022-10-16T20:04:42.229Z,3.98
2022-10-16T20:07:11.690Z,4.30
2022-10-16T20:09:41.171Z,4.65
2022-10-16T20:12:11.071Z,4.10
2022-10-16T20:14:40.504Z,4.08
2022-10-16T20:17:10.415Z,5.08
2022-10-16T20:19:39.924Z,4.22
2022-10-16T20:22:09.406Z,4.50
2022-10-16T20:24:38.992Z,4.05
2022-10-16T20:27:08.594Z,3.20
2022-10-16T20:29:38.159Z,3.90
2022-10-16T20:32:07.764Z,4.45
2022-10-16T20:37:06.635Z,4.70
2022-10-16T20:39:36.151Z,4.62
2022-10-16T20:42:05.567Z,4.20
2022-10-16T20:44:38.078Z,4.37
2022-10-16T20:47:07.504Z,4.03
2022-10-16T20:49:40.708Z,3.85
2022-10-16T20:52:08.171Z,3.90
2022-10-16T20:54:37.597Z,3.98
2022-10-16T20:57:07.028Z,4.42
2022-10-16T20:59:36.728Z,4.70
2022-10-16T21:02:12.122Z,3.52
2022-10-16T21:04:39.017Z,4.58
2022-10-16T21:07:08.432Z,3.95
2022-10-16T21:09:37.937Z,4.37
2022-10-16T21:12:07.396Z,4.58
2022-10-16T21:14:42.202Z,3.87
2022-10-16T21:17:08.683Z,3.90
2022-10-16T21:19:38.174Z,3.90
2022-10-16T21:22:07.591Z,4.85
2022-10-16T21:24:40.760Z,4.25
2022-10-16T21:27:10.359Z,4.47
2022-10-16T21:29:39.843Z,4.65
2022-10-16T21:32:09.316Z,4.40
2022-10-16T21:34:38.885Z,4.00
2022-10-16T21:37:08.308Z,4.28
2022-10-16T21:39:37.736Z,4.00
2022-10-16T21:42:07.331Z,3.70
2022-10-16T21:44:38.258Z,4.80
2022-10-16T21:47:07.715Z,4.28
2022-10-16T21:49:37.158Z,4.17
2022-10-16T21:52:06.754Z,4.50
2022-10-16T21:54:36.204Z,3.70
2022-10-16T21:57:05.817Z,4.40
2022-10-16T21:59:35.320Z,4.22
2022-10-16T22:02:04.833Z,4.50
2022-10-16T22:04:34.851Z,3.93
2022-10-16T22:07:04.277Z,4.05
2022-10-16T22:09:33.772Z,3.60
2022-10-16T22:12:03.233Z,3.83
2022-10-16T22:14:32.743Z,5.17
2022-10-16T22:17:02.245Z,4.10
2022-10-16T22:19:31.804Z,3.77
2022-10-16T22:22:01.877Z,4.50
2022-10-16T22:27:01.957Z,4.03
2022-10-16T22:29:31.384Z,4.35
2022-10-16T22:32:00.820Z,4.42
2022-10-16T22:34:30.429Z,4.72
2022-10-16T22:36:59.878Z,4.70
2022-10-16T22:39:29.370Z,4.20
2022-10-16T22:41:58.870Z,4.67
2022-10-16T22:44:28.898Z,4.83
2022-10-16T22:46:59.039Z,4.58
2022-10-16T22:49:28.530Z,4.53
2022-10-16T22:51:58.038Z,4.50
2022-10-16T22:54:27.530Z,4.70
2022-10-16T22:56:56.960Z,4.53
2022-10-16T22:59:26.382Z,4.37
2022-10-16T23:01:55.882Z,4.45
2022-10-16T23:04:25.294Z,4.50
2022-10-16T23:06:54.773Z,4.37
2022-10-16T23:09:24.251Z,4.10
2022-10-16T23:11:53.757Z,4.30
2022-10-16T23:14:24.476Z,4.75
2022-10-16T23:16:53.977Z,4.57
2022-10-16T23:19:23.407Z,5.35
2022-10-16T23:21:52.956Z,4.40
2022-10-16T23:24:22.367Z,5.12
2022-10-16T23:26:51.806Z,5.30
2022-10-16T23:29:21.286Z,4.97
2022-10-16T23:31:50.719Z,4.30
2022-10-16T23:34:20.121Z,5.05
2022-10-16T23:36:49.856Z,4.35
2022-10-16T23:39:19.282Z,4.65
2022-10-16T23:41:48.782Z,4.60
2022-10-16T23:44:18.340Z,4.80
2022-10-16T23:46:47.832Z,5.22
2022-10-16T23:49:17.248Z,4.35
2022-10-16T23:51:46.701Z,5.00
2022-10-16T23:54:16.186Z,4.80
2022-10-16T23:56:45.606Z,4.75
2022-10-16T23:59:15.157Z,5.47
